createdAt,value
2023-05-05T00:00:38.022Z,9.40
2023-05-05T00:02:40.813Z,8.73
2023-05-05T00:04:43.377Z,7.43
2023-05-05T00:06:45.784Z,8.32
2023-05-05T00:08:47.974Z,6.93
2023-05-05T00:10:51.799Z,6.93
2023-05-05T00:12:54.247Z,7.03
2023-05-05T00:14:56.531Z,6.97
2023-05-05T00:16:59.486Z,7.88
2023-05-05T00:19:01.968Z,6.55
2023-05-05T00:21:05.091Z,7.75
2023-05-05T00:23:07.736Z,5.40
2023-05-05T00:25:10.373Z,8.40
2023-05-05T00:27:12.648Z,7.85
2023-05-05T00:29:14.872Z,11.45
2023-05-05T00:31:17.380Z,11.52
2023-05-05T00:33:20.344Z,12.60
2023-05-05T00:35:22.813Z,10.48
2023-05-05T00:37:25.935Z,11.93
2023-05-05T00:39:28.285Z,10.93
2023-05-05T00:41:30.910Z,9.85
2023-05-05T00:43:33.811Z,9.68
2023-05-05T00:45:38.215Z,9.63
2023-05-05T00:47:43.939Z,13.05
2023-05-05T00:49:46.429Z,12.65
2023-05-05T00:51:49.169Z,9.23
2023-05-05T00:53:51.736Z,9.55
2023-05-05T00:55:53.956Z,8.18
2023-05-05T00:57:58.749Z,7.07
2023-05-05T01:00:03.107Z,8.52
2023-05-05T01:02:05.644Z,8.77
2023-05-05T01:04:08.291Z,9.48
2023-05-05T01:06:37.507Z,8.57
2023-05-05T01:09:15.201Z,8.50
2023-05-05T01:11:26.724Z,9.00
2023-05-05T01:13:48.127Z,9.32
2023-05-05T01:15:59.179Z,14.25
2023-05-05T01:18:30.990Z,11.90
2023-05-05T01:20:59.530Z,10.82
2023-05-05T01:23:07.352Z,8.85
2023-05-05T01:25:34.345Z,7.88
2023-05-05T01:27:50.380Z,8.60
2023-05-05T01:30:24.887Z,10.77
2023-05-05T01:32:30.396Z,10.02
2023-05-05T01:34:37.534Z,12.48
2023-05-05T01:38:46.809Z,10.15
2023-05-05T01:40:55.018Z,11.35
2023-05-05T01:43:01.080Z,13.77
2023-05-05T01:45:06.873Z,14.38
2023-05-05T01:47:13.466Z,10.68
2023-05-05T01:49:17.211Z,9.95
2023-05-05T01:51:22.131Z,10.65
2023-05-05T01:53:25.878Z,9.70
2023-05-05T01:55:29.793Z,9.35
2023-05-05T01:57:33.633Z,8.88
2023-05-05T01:59:37.318Z,12.15
2023-05-05T02:01:46.275Z,10.57
2023-05-05T02:03:51.764Z,13.77
2023-05-05T02:05:55.087Z,14.85
2023-05-05T02:08:00.312Z,13.52
2023-05-05T02:10:05.601Z,14.18
2023-05-05T02:12:09.290Z,13.60
2023-05-05T02:14:12.762Z,12.25
2023-05-05T02:16:18.247Z,11.77
2023-05-05T02:18:23.248Z,10.35
2023-05-05T02:20:27.819Z,11.95
2023-05-05T02:22:31.727Z,12.80
2023-05-05T02:24:34.409Z,14.13
2023-05-05T02:26:40.239Z,13.88
2023-05-05T02:28:51.981Z,11.20
2023-05-05T02:30:59.772Z,15.32
2023-05-05T02:33:09.648Z,14.82
2023-05-05T02:35:19.410Z,13.15
2023-05-05T02:37:27.725Z,12.50
2023-05-05T02:39:37.390Z,10.68
2023-05-05T02:41:49.095Z,13.32
2023-05-05T02:44:03.951Z,14.23
2023-05-05T02:46:08.385Z,14.90
2023-05-05T02:48:13.484Z,15.27
2023-05-05T02:50:16.011Z,15.95
2023-05-05T02:52:27.229Z,13.68
2023-05-05T02:54:31.991Z,11.88
2023-05-05T02:56:51.926Z,13.45
2023-05-05T02:59:16.546Z,18.40
2023-05-05T03:01:52.848Z,15.35
2023-05-05T03:04:14.852Z,20.55
2023-05-05T03:06:27.512Z,18.17
2023-05-05T03:08:55.126Z,15.10
2023-05-05T03:11:15.089Z,12.05
2023-05-05T03:13:20.897Z,12.07
2023-05-05T03:15:28.492Z,15.68
2023-05-05T03:17:33.191Z,16.20
2023-05-05T03:19:38.311Z,11.40
2023-05-05T03:21:41.270Z,12.75
2023-05-05T03:23:43.671Z,9.68
2023-05-05T03:25:53.524Z,11.50
2023-05-05T03:28:09.290Z,11.98
2023-05-05T03:30:12.853Z,11.45
2023-05-05T03:32:24.050Z,11.63
2023-05-05T03:34:29.584Z,10.48
2023-05-05T03:36:33.491Z,14.07
2023-05-05T03:38:36.289Z,14.68
2023-05-05T03:40:44.049Z,14.38
2023-05-05T03:42:51.286Z,10.05
2023-05-05T03:44:54.311Z,11.30
2023-05-05T03:46:58.434Z,11.80
2023-05-05T03:49:01.527Z,10.73
2023-05-05T03:51:04.480Z,11.10
2023-05-05T03:53:09.160Z,13.10
2023-05-05T03:55:12.113Z,14.18
2023-05-05T03:57:14.702Z,22.52
2023-05-05T03:59:17.809Z,17.17
2023-05-05T04:01:20.879Z,18.30
2023-05-05T04:03:23.556Z,18.73
2023-05-05T04:05:26.551Z,17.85
2023-05-05T04:07:29.987Z,16.92
2023-05-05T04:09:32.427Z,17.58
2023-05-05T04:11:34.844Z,21.00
2023-05-05T04:13:38.062Z,19.35
2023-05-05T04:15:47.561Z,19.20
2023-05-05T04:17:51.752Z,17.40
2023-05-05T04:19:55.909Z,18.42
2023-05-05T04:21:58.448Z,20.60
2023-05-05T04:24:01.275Z,20.80
2023-05-05T04:26:03.912Z,19.77
2023-05-05T04:28:06.511Z,18.58
2023-05-05T04:30:10.103Z,21.63
2023-05-05T04:32:15.424Z,22.35
2023-05-05T04:34:19.279Z,20.50
2023-05-05T04:36:22.134Z,22.65
2023-05-05T04:38:25.089Z,17.48
2023-05-05T04:40:27.986Z,18.33
2023-05-05T04:42:32.900Z,18.80
2023-05-05T04:44:36.060Z,19.25
2023-05-05T04:46:39.202Z,15.35
2023-05-05T04:48:41.476Z,16.20
2023-05-05T04:50:43.717Z,15.43
2023-05-05T04:52:46.381Z,17.63
2023-05-05T04:54:49.031Z,27.40
2023-05-05T04:56:52.594Z,21.00
2023-05-05T04:58:55.469Z,23.27
2023-05-05T05:00:59.033Z,22.55
2023-05-05T05:03:01.972Z,22.27
2023-05-05T05:05:04.980Z,22.95
2023-05-05T05:07:07.762Z,22.20
2023-05-05T05:09:10.258Z,23.50
2023-05-05T05:11:13.485Z,21.70
2023-05-05T05:13:16.213Z,21.88
2023-05-05T05:15:19.028Z,21.48
2023-05-05T05:17:23.334Z,18.23
2023-05-05T05:19:25.653Z,21.63
2023-05-05T05:21:28.803Z,22.08
2023-05-05T05:23:31.712Z,21.30
2023-05-05T05:25:34.317Z,19.80
2023-05-05T05:27:36.885Z,20.58
2023-05-05T05:29:39.780Z,23.13
2023-05-05T05:31:44.618Z,21.23
2023-05-05T05:33:49.851Z,20.30
2023-05-05T05:35:55.304Z,23.92
2023-05-05T05:37:57.567Z,22.80
2023-05-05T05:40:00.710Z,21.95
2023-05-05T05:42:05.415Z,20.95
2023-05-05T05:44:08.196Z,22.33
2023-05-05T05:46:11.199Z,18.10
2023-05-05T05:48:15.001Z,16.90
2023-05-05T05:50:17.750Z,22.00
2023-05-05T05:52:20.842Z,21.05
2023-05-05T05:54:24.013Z,17.63
2023-05-05T05:56:29.200Z,18.67
2023-05-05T05:58:34.338Z,16.30
2023-05-05T06:00:36.727Z,16.83
2023-05-05T06:02:43.874Z,15.77
2023-05-05T06:04:50.385Z,15.95
2023-05-05T06:06:53.476Z,16.60
2023-05-05T06:08:55.808Z,14.85
2023-05-05T06:10:58.377Z,16.77
2023-05-05T06:13:00.967Z,16.30
2023-05-05T06:15:04.411Z,16.88
2023-05-05T06:17:06.676Z,15.02
2023-05-05T06:19:10.921Z,15.10
2023-05-05T06:21:14.305Z,14.85
2023-05-05T06:23:16.667Z,14.68
2023-05-05T06:25:24.442Z,16.58
2023-05-05T06:27:28.049Z,15.80
2023-05-05T06:29:30.662Z,15.05
2023-05-05T06:31:33.057Z,13.40
2023-05-05T06:33:35.987Z,14.68
2023-05-05T06:35:38.383Z,15.40
2023-05-05T06:37:40.756Z,15.82
2023-05-05T06:39:43.444Z,15.70
2023-05-05T06:41:45.754Z,17.20
2023-05-05T06:43:48.536Z,16.08
2023-05-05T06:45:51.076Z,16.52
2023-05-05T06:47:53.432Z,13.20
2023-05-05T06:49:55.761Z,12.93
2023-05-05T06:51:58.180Z,15.65
2023-05-05T06:54:00.572Z,15.00
2023-05-05T06:56:03.572Z,15.90
2023-05-05T06:58:06.146Z,16.40
2023-05-05T07:00:11.792Z,15.45
2023-05-05T07:02:14.450Z,13.48
2023-05-05T07:04:16.887Z,16.33
2023-05-05T07:06:20.054Z,13.85
2023-05-05T07:08:22.582Z,13.65
2023-05-05T07:10:26.812Z,13.77
2023-05-05T07:12:33.865Z,14.48
2023-05-05T07:14:36.795Z,17.73
2023-05-05T07:16:39.459Z,14.20
2023-05-05T07:18:41.874Z,13.60
2023-05-05T07:20:45.005Z,12.45
2023-05-05T07:22:47.673Z,15.10
2023-05-05T07:24:51.677Z,12.98
2023-05-05T07:26:54.118Z,15.70
2023-05-05T07:28:58.279Z,13.68
2023-05-05T07:31:00.703Z,12.48
2023-05-05T07:33:04.322Z,13.00
2023-05-05T07:35:07.488Z,11.48
2023-05-05T07:37:09.817Z,11.77
2023-05-05T07:39:15.442Z,11.48
2023-05-05T07:41:18.909Z,14.90
2023-05-05T07:43:21.716Z,14.88
2023-05-05T07:45:24.715Z,11.43
2023-05-05T07:47:27.227Z,11.02
2023-05-05T07:49:30.050Z,12.88
2023-05-05T07:51:34.497Z,12.27
2023-05-05T07:53:37.717Z,13.05
2023-05-05T07:55:40.219Z,11.82
2023-05-05T07:57:43.288Z,14.35
2023-05-05T07:59:45.991Z,12.90
2023-05-05T08:01:48.317Z,11.43
2023-05-05T08:03:50.851Z,10.90
2023-05-05T08:05:55.147Z,10.82
2023-05-05T08:07:57.559Z,10.38
2023-05-05T08:10:00.208Z,9.80
2023-05-05T08:12:03.106Z,9.93
2023-05-05T08:14:05.672Z,10.50
2023-05-05T08:16:08.462Z,11.98
2023-05-05T08:18:11.490Z,13.55
2023-05-05T08:20:14.717Z,11.02
2023-05-05T08:22:17.211Z,13.00
2023-05-05T08:24:19.728Z,12.95
2023-05-05T08:26:23.360Z,12.68
2023-05-05T08:28:25.647Z,11.60
2023-05-05T08:30:28.228Z,12.23
2023-05-05T08:32:30.693Z,13.85
2023-05-05T08:34:33.164Z,11.05
2023-05-05T08:36:36.061Z,14.90
2023-05-05T08:38:38.531Z,10.88
2023-05-05T08:40:41.811Z,12.15
2023-05-05T08:42:47.411Z,12.38
2023-05-05T08:44:50.413Z,11.15
2023-05-05T08:46:53.871Z,14.60
2023-05-05T08:48:57.300Z,17.77
2023-05-05T08:51:02.618Z,11.57
2023-05-05T08:53:17.424Z,10.88
2023-05-05T08:55:27.729Z,14.60
2023-05-05T08:58:03.501Z,11.00
2023-05-05T09:00:11.148Z,8.35
2023-05-05T09:02:15.346Z,9.43
2023-05-05T09:04:19.588Z,8.90
2023-05-05T09:06:23.926Z,5.43
2023-05-05T09:08:27.899Z,7.40
2023-05-05T09:10:31.256Z,6.72
2023-05-05T09:12:33.609Z,5.70
2023-05-05T09:14:36.556Z,6.35
2023-05-05T09:16:44.762Z,5.28
2023-05-05T09:18:47.582Z,5.05
2023-05-05T09:20:50.273Z,6.50
2023-05-05T09:22:53.647Z,5.70
2023-05-05T09:24:57.091Z,4.65
2023-05-05T09:27:01.403Z,4.75
2023-05-05T09:29:05.094Z,5.15
2023-05-05T09:31:16.165Z,4.75
2023-05-05T09:33:31.434Z,4.07
2023-05-05T09:35:53.927Z,4.10
2023-05-05T09:37:57.521Z,4.90
2023-05-05T09:40:03.928Z,5.15
2023-05-05T09:42:06.507Z,4.70
2023-05-05T09:44:09.906Z,5.85
2023-05-05T09:46:12.828Z,4.00
2023-05-05T09:48:47.794Z,5.65
2023-05-05T09:50:50.617Z,4.80
2023-05-05T09:53:03.879Z,5.38
2023-05-05T09:55:08.529Z,5.72
2023-05-05T09:57:27.753Z,6.07
2023-05-05T09:59:30.228Z,5.72
2023-05-05T10:01:32.704Z,4.45
2023-05-05T10:03:52.060Z,6.07
2023-05-05T10:05:56.777Z,6.28
2023-05-05T10:08:13.930Z,3.88
2023-05-05T10:10:18.795Z,4.68
2023-05-05T10:12:21.578Z,5.25
2023-05-05T10:14:26.228Z,8.25
2023-05-05T10:16:33.254Z,4.63
2023-05-05T10:18:36.063Z,4.65
2023-05-05T10:20:39.211Z,3.92
2023-05-05T10:22:52.694Z,5.60
2023-05-05T10:25:09.759Z,4.00
2023-05-05T10:27:20.410Z,4.70
2023-05-05T10:29:47.282Z,4.43
2023-05-05T10:32:18.817Z,3.95
2023-05-05T10:34:38.915Z,5.10
2023-05-05T10:36:42.081Z,4.30
2023-05-05T10:38:46.830Z,4.57
2023-05-05T10:40:50.787Z,4.72
2023-05-05T10:42:54.730Z,4.05
2023-05-05T10:44:57.207Z,6.18
2023-05-05T10:47:01.232Z,6.22
2023-05-05T10:49:16.582Z,5.90
2023-05-05T10:51:48.266Z,4.50
2023-05-05T10:54:06.664Z,5.15
2023-05-05T10:56:18.038Z,4.15
2023-05-05T10:58:43.720Z,4.78
2023-05-05T11:00:54.158Z,4.38
2023-05-05T11:03:18.742Z,5.80
2023-05-05T11:05:23.880Z,5.13
2023-05-05T11:07:28.093Z,3.83
2023-05-05T11:09:30.909Z,4.60
2023-05-05T11:12:10.213Z,4.00
2023-05-05T11:14:25.353Z,6.25
2023-05-05T11:16:50.934Z,5.15
2023-05-05T11:18:53.465Z,4.40
2023-05-05T11:20:58.837Z,4.80
2023-05-05T11:23:04.802Z,4.43
2023-05-05T11:25:44.836Z,4.45
2023-05-05T11:28:08.800Z,4.28
2023-05-05T11:32:18.396Z,3.50
2023-05-05T11:34:28.574Z,4.18
2023-05-05T11:36:41.715Z,5.63
2023-05-05T11:38:49.841Z,4.53
2023-05-05T11:41:02.852Z,4.45
2023-05-05T11:43:07.777Z,5.50
2023-05-05T11:45:22.092Z,3.90
2023-05-05T11:47:27.455Z,4.18
2023-05-05T11:49:34.197Z,5.82
2023-05-05T11:51:38.824Z,4.82
2023-05-05T11:53:46.476Z,4.75
2023-05-05T11:55:49.052Z,5.10
2023-05-05T11:57:52.232Z,4.93
2023-05-05T11:59:55.875Z,3.50
2023-05-05T12:01:59.560Z,3.67
2023-05-05T12:04:02.462Z,2.80
2023-05-05T12:06:07.255Z,4.72
2023-05-05T12:08:10.669Z,3.90
2023-05-05T12:10:13.623Z,3.70
2023-05-05T12:12:17.559Z,3.53
2023-05-05T12:14:21.239Z,5.47
2023-05-05T12:16:24.292Z,6.07
2023-05-05T12:18:26.851Z,4.05
2023-05-05T12:20:32.301Z,6.70
2023-05-05T12:22:34.969Z,3.70
2023-05-05T12:24:38.116Z,4.38
2023-05-05T12:26:40.881Z,4.63
2023-05-05T12:28:46.928Z,4.63
2023-05-05T12:31:00.246Z,4.55
2023-05-05T12:33:07.817Z,4.13
2023-05-05T12:35:10.949Z,3.97
2023-05-05T12:37:13.776Z,3.90
2023-05-05T12:39:16.107Z,4.55
2023-05-05T12:41:20.214Z,4.45
2023-05-05T12:43:27.203Z,4.72
2023-05-05T12:45:29.860Z,3.40
2023-05-05T12:47:33.477Z,3.80
2023-05-05T12:49:50.421Z,4.32
2023-05-05T12:51:57.208Z,3.75
2023-05-05T12:54:03.881Z,4.78
2023-05-05T12:56:06.301Z,3.60
2023-05-05T12:58:08.943Z,3.70
2023-05-05T13:00:18.255Z,3.95
2023-05-05T13:02:21.297Z,3.72
2023-05-05T13:04:26.419Z,4.57
2023-05-05T13:06:28.711Z,4.13
2023-05-05T13:08:44.542Z,5.55
2023-05-05T13:10:59.568Z,4.68
2023-05-05T13:13:02.853Z,6.32
2023-05-05T13:15:06.389Z,4.20
2023-05-05T13:17:09.446Z,5.13
2023-05-05T13:19:12.322Z,3.90
2023-05-05T13:21:15.109Z,4.47
2023-05-05T13:23:17.319Z,5.43
2023-05-05T13:25:19.617Z,5.25
2023-05-05T13:27:22.637Z,4.53
2023-05-05T13:29:29.544Z,4.47
2023-05-05T13:31:33.840Z,4.82
2023-05-05T13:33:36.773Z,3.53
2023-05-05T13:35:39.104Z,4.07
2023-05-05T13:37:42.736Z,5.22
2023-05-05T13:39:45.487Z,6.32
2023-05-05T13:41:48.209Z,4.60
2023-05-05T13:43:51.734Z,5.70
2023-05-05T13:45:55.956Z,5.13
2023-05-05T13:48:03.403Z,4.15
2023-05-05T13:50:06.757Z,4.38
2023-05-05T13:52:09.243Z,5.22
2023-05-05T13:54:11.946Z,5.93
2023-05-05T13:56:14.496Z,4.50
2023-05-05T13:58:17.964Z,5.05
2023-05-05T14:00:20.769Z,4.82
2023-05-05T14:02:23.581Z,4.18
2023-05-05T14:04:26.186Z,5.28
2023-05-05T14:06:28.552Z,4.60
2023-05-05T14:08:31.066Z,3.97
2023-05-05T14:10:33.485Z,5.90
2023-05-05T14:12:36.129Z,5.38
2023-05-05T14:14:38.387Z,4.10
2023-05-05T14:16:41.321Z,4.65
2023-05-05T14:18:43.835Z,3.88
2023-05-05T14:20:46.087Z,3.80
2023-05-05T14:22:49.373Z,4.80
2023-05-05T14:24:52.050Z,8.35
2023-05-05T14:26:54.745Z,4.78
2023-05-05T14:28:57.356Z,4.45
2023-05-05T14:30:59.926Z,4.95
2023-05-05T14:33:02.327Z,4.72
2023-05-05T14:35:05.393Z,4.13
2023-05-05T14:37:09.193Z,3.85
2023-05-05T14:39:12.041Z,6.10
2023-05-05T14:41:14.606Z,4.22
2023-05-05T14:43:16.805Z,3.58
2023-05-05T14:45:19.165Z,4.13
2023-05-05T14:47:21.958Z,4.05
2023-05-05T14:49:24.481Z,9.48
2023-05-05T14:51:26.812Z,8.50
2023-05-05T14:53:29.148Z,8.55
2023-05-05T14:55:31.556Z,17.75
2023-05-05T14:57:33.980Z,5.20
2023-05-05T14:59:36.576Z,4.55
2023-05-05T15:01:39.087Z,3.33
2023-05-05T15:03:41.623Z,7.43
2023-05-05T15:05:44.213Z,4.05
2023-05-05T15:07:46.898Z,5.72
2023-05-05T15:09:49.533Z,5.45
2023-05-05T15:11:52.080Z,3.08
2023-05-05T15:13:54.663Z,4.03
2023-05-05T15:15:57.415Z,3.85
2023-05-05T15:18:00.112Z,5.75
2023-05-05T15:20:02.593Z,3.35
2023-05-05T15:22:05.533Z,3.92
2023-05-05T15:24:07.868Z,5.15
2023-05-05T15:26:10.449Z,5.50
2023-05-05T15:28:12.920Z,4.45
2023-05-05T15:30:16.068Z,4.18
2023-05-05T15:32:18.880Z,3.47
2023-05-05T15:34:21.682Z,5.60
2023-05-05T15:36:25.119Z,5.43
2023-05-05T15:38:29.381Z,4.10
2023-05-05T15:40:31.903Z,3.88
2023-05-05T15:42:34.768Z,5.28
2023-05-05T15:44:37.442Z,4.18
2023-05-05T15:46:40.003Z,4.40
2023-05-05T15:48:42.253Z,3.05
2023-05-05T15:50:44.749Z,3.50
2023-05-05T15:52:49.825Z,5.00
2023-05-05T15:54:53.112Z,3.95
2023-05-05T15:56:55.647Z,4.57
2023-05-05T15:58:58.337Z,3.72
2023-05-05T16:01:01.241Z,4.47
2023-05-05T16:03:03.906Z,4.35
2023-05-05T16:05:07.178Z,3.05
2023-05-05T16:07:09.877Z,4.13
2023-05-05T16:09:12.418Z,3.65
2023-05-05T16:11:15.811Z,4.75
2023-05-05T16:13:18.796Z,4.55
2023-05-05T16:15:21.872Z,3.95
2023-05-05T16:17:24.201Z,4.10
2023-05-05T16:19:30.122Z,2.65
2023-05-05T16:21:33.872Z,4.63
2023-05-05T16:23:36.177Z,3.88
2023-05-05T16:25:38.876Z,3.40
2023-05-05T16:27:41.101Z,4.00
2023-05-05T16:29:43.782Z,4.45
2023-05-05T16:31:46.301Z,2.72
2023-05-05T16:33:49.101Z,5.03
2023-05-05T16:35:51.536Z,3.17
2023-05-05T16:37:54.223Z,4.30
2023-05-05T16:39:56.495Z,4.15
2023-05-05T16:41:58.979Z,3.35
2023-05-05T16:44:02.171Z,3.85
2023-05-05T16:46:04.908Z,3.92
2023-05-05T16:48:09.056Z,3.65
2023-05-05T16:50:11.904Z,2.85
2023-05-05T16:52:15.226Z,2.75
2023-05-05T16:54:17.678Z,4.18
2023-05-05T16:56:20.301Z,4.03
2023-05-05T16:58:23.490Z,2.80
2023-05-05T17:00:26.002Z,3.67
2023-05-05T17:02:28.704Z,3.05
2023-05-05T17:04:31.248Z,4.03
2023-05-05T17:06:33.665Z,4.28
2023-05-05T17:08:36.019Z,3.85
2023-05-05T17:10:38.301Z,4.35
2023-05-05T17:12:41.217Z,3.72
2023-05-05T17:14:45.258Z,3.90
2023-05-05T17:16:48.074Z,3.25
2023-05-05T17:18:50.311Z,4.15
2023-05-05T17:20:52.745Z,3.78
2023-05-05T17:22:56.357Z,3.25
2023-05-05T17:24:59.198Z,2.55
2023-05-05T17:27:02.283Z,3.83
2023-05-05T17:29:04.722Z,3.50
2023-05-05T17:31:07.081Z,3.70
2023-05-05T17:33:09.796Z,3.65
2023-05-05T17:35:12.539Z,4.78
2023-05-05T17:37:14.960Z,7.15
2023-05-05T17:39:17.901Z,4.15
2023-05-05T17:41:20.430Z,5.53
2023-05-05T17:43:22.954Z,4.00
2023-05-05T17:45:25.618Z,4.50
2023-05-05T17:47:28.341Z,4.68
2023-05-05T17:49:31.157Z,9.18
2023-05-05T17:51:33.521Z,4.50
2023-05-05T17:53:36.168Z,6.05
2023-05-05T17:55:38.508Z,3.97
2023-05-05T17:57:40.950Z,6.25
2023-05-05T17:59:43.421Z,5.05
2023-05-05T18:01:46.162Z,5.65
2023-05-05T18:03:49.280Z,5.13
2023-05-05T18:05:51.851Z,5.88
2023-05-05T18:07:54.380Z,4.95
2023-05-05T18:09:57.287Z,6.40
2023-05-05T18:11:59.721Z,5.22
2023-05-05T18:14:02.314Z,6.57
2023-05-05T18:16:05.678Z,6.85
2023-05-05T18:18:08.390Z,6.10
2023-05-05T18:20:12.001Z,6.40
2023-05-05T18:22:15.277Z,5.07
2023-05-05T18:24:20.378Z,6.03
2023-05-05T18:26:23.433Z,6.18
2023-05-05T18:28:26.259Z,7.85
2023-05-05T18:30:29.066Z,6.07
2023-05-05T18:32:31.936Z,5.30
2023-05-05T18:34:35.312Z,7.75
2023-05-05T18:36:37.790Z,5.25
2023-05-05T18:38:40.626Z,7.10
2023-05-05T18:40:43.559Z,5.72
2023-05-05T18:42:46.598Z,6.28
2023-05-05T18:44:49.483Z,5.30
2023-05-05T18:46:52.044Z,7.18
2023-05-05T18:48:54.954Z,6.13
2023-05-05T18:51:04.551Z,5.05
2023-05-05T18:53:07.883Z,5.95
2023-05-05T18:55:10.818Z,6.15
2023-05-05T18:57:14.400Z,5.63
2023-05-05T18:59:17.304Z,7.95
2023-05-05T19:01:20.748Z,5.97
2023-05-05T19:03:23.659Z,6.82
2023-05-05T19:05:28.272Z,9.32
2023-05-05T19:07:35.485Z,6.25
2023-05-05T19:09:54.276Z,6.43
2023-05-05T19:11:57.108Z,7.95
2023-05-05T19:13:59.806Z,6.60
2023-05-05T19:16:02.975Z,6.88
2023-05-05T19:18:07.536Z,7.10
2023-05-05T19:20:10.723Z,8.25
2023-05-05T19:22:13.616Z,10.07
2023-05-05T19:24:16.433Z,6.97
2023-05-05T19:26:19.031Z,6.60
2023-05-05T19:28:22.072Z,7.70
2023-05-05T19:30:24.847Z,7.85
2023-05-05T19:32:27.899Z,9.20
2023-05-05T19:34:30.382Z,6.53
2023-05-05T19:36:34.069Z,7.13
2023-05-05T19:38:37.617Z,8.70
2023-05-05T19:40:41.388Z,6.22
2023-05-05T19:42:44.422Z,6.47
2023-05-05T19:44:47.411Z,8.68
2023-05-05T19:46:50.360Z,7.88
2023-05-05T19:48:53.230Z,6.57
2023-05-05T19:50:55.916Z,7.75
2023-05-05T19:52:58.499Z,7.35
2023-05-05T19:55:01.373Z,8.82
2023-05-05T19:57:04.387Z,7.70
2023-05-05T19:59:07.047Z,7.60
2023-05-05T20:01:10.404Z,5.88
2023-05-05T20:03:13.563Z,7.57
2023-05-05T20:05:17.913Z,8.05
2023-05-05T20:07:21.254Z,7.78
2023-05-05T20:09:23.738Z,6.55
2023-05-05T20:11:26.450Z,9.82
2023-05-05T20:13:28.988Z,7.68
2023-05-05T20:15:32.741Z,6.95
2023-05-05T20:17:35.757Z,7.97
2023-05-05T20:19:38.611Z,5.80
2023-05-05T20:21:41.412Z,7.15
2023-05-05T20:23:45.814Z,8.02
2023-05-05T20:25:48.404Z,6.03
2023-05-05T20:27:51.133Z,7.90
2023-05-05T20:29:53.917Z,6.57
2023-05-05T20:31:57.199Z,8.90
2023-05-05T20:33:59.750Z,6.50
2023-05-05T20:36:02.222Z,6.75
2023-05-05T20:38:05.018Z,6.80
2023-05-05T20:40:08.613Z,7.40
2023-05-05T20:42:11.329Z,9.00
2023-05-05T20:44:14.029Z,5.50
2023-05-05T20:46:17.166Z,8.20
2023-05-05T20:48:20.169Z,7.45
2023-05-05T20:50:23.468Z,5.43
2023-05-05T20:52:25.998Z,6.50
2023-05-05T20:54:34.679Z,8.40
2023-05-05T20:56:37.227Z,7.03
2023-05-05T20:58:39.550Z,5.78
2023-05-05T21:00:42.704Z,7.43
2023-05-05T21:02:45.463Z,6.38
2023-05-05T21:04:48.473Z,4.90
2023-05-05T21:06:50.964Z,5.18
2023-05-05T21:08:53.472Z,5.13
2023-05-05T21:10:56.328Z,5.45
2023-05-05T21:12:59.028Z,5.82
2023-05-05T21:15:01.819Z,6.38
2023-05-05T21:17:04.243Z,8.40
2023-05-05T21:19:06.951Z,6.63
2023-05-05T21:21:09.452Z,6.45
2023-05-05T21:23:12.035Z,5.22
2023-05-05T21:25:20.263Z,7.93
2023-05-05T21:27:23.182Z,7.68
2023-05-05T21:29:26.293Z,6.72
2023-05-05T21:31:29.307Z,7.35
2023-05-05T21:33:31.782Z,7.65
2023-05-05T21:35:34.376Z,6.82
2023-05-05T21:37:39.844Z,5.90
2023-05-05T21:39:42.828Z,7.18
2023-05-05T21:41:45.564Z,7.93
2023-05-05T21:43:47.976Z,9.05
2023-05-05T21:46:02.541Z,6.50
2023-05-05T21:48:06.589Z,7.38
2023-05-05T21:50:10.499Z,7.78
2023-05-05T21:52:13.258Z,8.20
2023-05-05T21:54:16.084Z,6.35
2023-05-05T21:56:18.276Z,7.03
2023-05-05T21:58:21.071Z,7.03
2023-05-05T22:00:24.078Z,8.15
2023-05-05T22:02:26.590Z,6.38
2023-05-05T22:04:29.662Z,6.47
2023-05-05T22:06:50.500Z,7.03
2023-05-05T22:08:53.311Z,9.07
2023-05-05T22:10:56.104Z,6.20
2023-05-05T22:12:58.525Z,5.65
2023-05-05T22:15:01.360Z,8.32
2023-05-05T22:17:03.842Z,7.93
2023-05-05T22:19:07.315Z,9.80
2023-05-05T22:21:10.266Z,10.60
2023-05-05T22:23:14.344Z,8.40
2023-05-05T22:25:17.162Z,10.55
2023-05-05T22:27:19.488Z,10.02
2023-05-05T22:29:21.794Z,9.20
2023-05-05T22:31:24.568Z,9.52
2023-05-05T22:33:27.538Z,12.63
2023-05-05T22:35:30.020Z,9.73
2023-05-05T22:37:32.459Z,9.18
2023-05-05T22:39:34.949Z,10.07
2023-05-05T22:41:37.884Z,8.43
2023-05-05T22:43:40.391Z,8.02
2023-05-05T22:45:43.917Z,8.15
2023-05-05T22:47:46.573Z,8.00
2023-05-05T22:49:49.041Z,8.70
2023-05-05T22:51:52.227Z,8.07
2023-05-05T22:53:54.754Z,7.07
2023-05-05T22:55:58.693Z,8.20
2023-05-05T22:58:01.234Z,7.53
2023-05-05T23:00:05.297Z,8.27
2023-05-05T23:02:08.147Z,9.85
2023-05-05T23:04:11.002Z,10.75
2023-05-05T23:06:13.552Z,10.30
2023-05-05T23:08:15.897Z,12.15
2023-05-05T23:10:18.608Z,10.27
2023-05-05T23:12:21.154Z,9.02
2023-05-05T23:14:23.404Z,11.57
2023-05-05T23:16:26.165Z,11.88
2023-05-05T23:18:28.577Z,10.27
2023-05-05T23:20:31.064Z,9.98
2023-05-05T23:22:33.364Z,9.07
2023-05-05T23:24:35.839Z,8.23
2023-05-05T23:26:38.139Z,9.40
2023-05-05T23:28:40.551Z,8.95
2023-05-05T23:30:43.366Z,10.25
2023-05-05T23:32:46.258Z,11.73
2023-05-05T23:34:48.865Z,10.13
2023-05-05T23:36:51.346Z,13.68
2023-05-05T23:41:10.558Z,10.15
2023-05-05T23:43:13.249Z,12.00
2023-05-05T23:45:17.532Z,11.60
2023-05-05T23:47:21.360Z,13.93
2023-05-05T23:49:25.236Z,12.45
2023-05-05T23:51:27.621Z,12.85
2023-05-05T23:53:30.396Z,12.00
2023-05-05T23:55:33.025Z,10.45
2023-05-05T23:57:36.389Z,10.57
2023-05-05T23:59:39.637Z,12.00
